Airfield :
LOGIN :

Register | Disclaimer

   EN    FR    IT 

 










Legend :    VFR   Marginal VFR   IFR   Intensive IFR   Very Intensive IFR
Visi :
Ceiling :
>= 8 km
>= 3000ft
5 to 8 km
1000 to 3000 ft
1500m to 5 km
500 to 1000 ft
800 to 1500m
200 to 500 ft
< 800m
< 200 ft
Symbols :   Thunderstorms  Fog  Heavy snow  Heavy precipitations  Wind > 20 kt
SIGMETs :     Misc.  Thunderstorms  Icing  Turbulence  Mountain Waves  Volcanic Ashes






- Airport Elevation : 119 ft
- IATA code : WAT


EIWF - Waterford

CURRENT METAR :
  • 151230Z 27007KT 210V310 9999 FEW022 06/04 Q0989 R21/1/////

EXPIRED METARs :
  • 151200Z 25007KT 220V290 9999 FEW012 SCT025 05/04 Q0989 R21/1/////
  • 151130Z 27006KT 220V310 9999 FEW008 SCT025 05/04 Q0989 R21/1/////
  • 151100Z 27006KT 230V300 9999 FEW004 SCT020 05/03 Q0989
  • 151030Z 27009KT 230V320 9999 SCT004 05/04 Q0989 REDZ

TAF TAF EIWF
Valid from the 15 at 12:00 until the 15 at 21:00 UTC


151100Z 1512/1521 26010KT 9999 SCT004 BKN020
TEMPO 1512/1520 4000 SHRA BKN010 BKN018CB
BECMG 1512/1514 21018G28KT
PROB40
TEMPO 1513/1518 22025G40KT
ATIS : +353 51 877 000



MET'MAP, your aeronautical weather chart ! - Copyright ORBIFLY December 2007 - Disclaimer

ORBIFLY MET'MAP TEAM :

Programming & Development : Alexandra Zaïnal
Concept & original design : Baudouin d'Aumeries
Assistance for programming : Marc-Olivier Méhu
Technical & hardware support : Manuel Goepfert

Contact : metmap@orbifly.com




SOURCES & CREDITS :

   NOAA